LECO

A Coruña Airport

Culleredo, Spain
TAF LECO 220200Z 2203/2303 VRB05KT 2500 BR BCFG BKN003 TX24/2214Z TN15/2205Z TEMPO 2203/2208 0600 FG BKN001 PROB40 TEMPO 2203/2207 0150 FG VV001 PROB30 TEMPO 2205/2207 6000 NSW SCT002 BECMG 2207/2209 CAVOK BECMG 2219/2221 3000 BR BCFG BKN003 PROB40 TEMPO 2220/2303 0600 FG BKN001
Issued Valid From Valid To
Sep-22 @ 02:00 UTC
(2 hours ago)
Sep-22 @ 03:00 UTC
(47 minutes ago)
Sep-23 @ 03:00 UTC
(in 23 hours)
to
to
to
to
to
to
to
TAF LECO 220200Z 2203/2303 VRB05KT 2500 BR BCFG BKN003 TX24/2214Z TN15/2205Z TEMPO 2203/2208 0600 FG BKN001 PROB40 TEMPO 2203/2207 0150 FG VV001 PROB30 TEMPO 2205/2207 6000 NSW SCT002 BECMG 2207/2209 CAVOK BECMG 2219/2221 3000 BR BCFG BKN003 PROB40 TEMPO 2220/2303 0600 FG BKN001
Issued Sep-22 @ 02:00 UTC
(2 hours ago)
Valid From Sep-22 @ 03:00 UTC
(47 minutes ago)
Valid To Sep-23 @ 03:00 UTC
(in 23 hours)
-
-
-
-
-
-
-